createdAt,value
2022-09-14T00:01:30.533Z,84.07
2022-09-14T00:04:08.263Z,84.06
2022-09-14T00:06:35.580Z,84.61
2022-09-14T00:09:03.704Z,84.24
2022-09-14T00:11:32.280Z,83.94
2022-09-14T00:14:00.970Z,84.38
2022-09-14T00:16:32.661Z,83.97
2022-09-14T00:19:06.620Z,84.50
2022-09-14T00:21:38.366Z,84.50
2022-09-14T00:24:07.386Z,84.51
2022-09-14T00:26:34.525Z,84.55
2022-09-14T00:29:05.535Z,85.17
2022-09-14T00:31:37.324Z,85.20
2022-09-14T00:34:06.149Z,85.39
2022-09-14T00:36:37.284Z,85.29
2022-09-14T00:39:04.525Z,85.19
2022-09-14T00:41:35.594Z,85.14
2022-09-14T00:44:27.821Z,85.22
2022-09-14T00:47:00.571Z,84.75
2022-09-14T00:49:37.402Z,85.22
2022-09-14T00:52:15.249Z,85.67
2022-09-14T00:54:45.341Z,86.02
2022-09-14T00:57:12.346Z,85.88
2022-09-14T00:59:41.716Z,86.41
2022-09-14T01:02:10.886Z,86.52
2022-09-14T01:04:37.933Z,86.39
2022-09-14T01:07:35.486Z,86.62
2022-09-14T01:10:08.866Z,86.66
2022-09-14T01:12:54.126Z,86.83
2022-09-14T01:15:39.801Z,86.69
2022-09-14T01:18:21.099Z,87.29
2022-09-14T01:20:57.047Z,87.49
2022-09-14T01:24:06.271Z,87.69
2022-09-14T01:27:10.229Z,87.75
2022-09-14T01:29:47.463Z,87.40
2022-09-14T01:32:28.565Z,87.33
2022-09-14T01:35:22.153Z,87.86
2022-09-14T01:38:11.511Z,87.49
2022-09-14T01:40:46.314Z,87.60
2022-09-14T01:43:22.392Z,87.60
2022-09-14T01:45:55.935Z,87.35
2022-09-14T01:48:30.448Z,87.17
2022-09-14T01:50:59.843Z,87.36
2022-09-14T01:53:50.797Z,87.73
2022-09-14T01:56:23.225Z,86.97
2022-09-14T01:59:02.436Z,87.48
2022-09-14T02:01:37.377Z,87.51
2022-09-14T02:04:07.595Z,87.15
2022-09-14T02:06:47.234Z,87.33
2022-09-14T02:09:18.323Z,87.73
2022-09-14T02:11:45.234Z,87.81
2022-09-14T02:14:12.052Z,88.33
2022-09-14T02:16:40.031Z,87.83
2022-09-14T02:19:06.536Z,87.79
2022-09-14T02:21:34.602Z,88.29
2022-09-14T02:24:02.378Z,87.90
2022-09-14T02:26:30.458Z,88.40
2022-09-14T02:28:57.907Z,88.16
2022-09-14T02:31:53.221Z,88.25
2022-09-14T02:34:36.462Z,88.31
2022-09-14T02:37:11.988Z,87.91
2022-09-14T02:40:04.781Z,87.66
2022-09-14T02:42:57.909Z,88.06
2022-09-14T02:46:02.438Z,88.05
2022-09-14T02:48:58.053Z,88.23
2022-09-14T02:51:33.738Z,88.58
2022-09-14T02:54:28.600Z,88.62
2022-09-14T02:56:55.201Z,88.71
2022-09-14T02:59:21.625Z,88.17
2022-09-14T03:01:48.087Z,88.35
2022-09-14T03:04:14.565Z,88.92
2022-09-14T03:06:40.935Z,88.81
2022-09-14T03:09:07.546Z,88.40
2022-09-14T03:11:34.758Z,88.46
2022-09-14T03:14:01.196Z,88.76
2022-09-14T03:16:27.921Z,89.09
2022-09-14T03:18:54.357Z,89.09
2022-09-14T03:21:20.766Z,89.21
2022-09-14T03:23:50.493Z,88.57
2022-09-14T03:26:20.364Z,88.31
2022-09-14T03:28:51.192Z,87.85
2022-09-14T03:31:17.724Z,88.29
2022-09-14T03:33:44.192Z,88.22
2022-09-14T03:36:13.330Z,88.19
2022-09-14T03:38:44.178Z,88.28
2022-09-14T03:41:11.597Z,87.93
2022-09-14T03:43:38.077Z,87.85
2022-09-14T03:46:10.947Z,86.95
2022-09-14T03:48:38.347Z,87.23
2022-09-14T03:51:06.954Z,87.25
2022-09-14T03:53:34.988Z,87.54
2022-09-14T03:56:11.780Z,87.47
2022-09-14T03:58:38.877Z,87.52
2022-09-14T04:01:07.094Z,87.04
2022-09-14T04:03:34.761Z,87.23
2022-09-14T04:06:05.182Z,87.46
2022-09-14T04:08:37.372Z,87.57
2022-09-14T04:11:16.620Z,88.10
2022-09-14T04:13:44.275Z,87.99
2022-09-14T04:16:11.412Z,88.06
2022-09-14T04:18:38.038Z,88.53
2022-09-14T04:21:10.213Z,88.52
2022-09-14T04:23:56.588Z,88.69
2022-09-14T04:26:26.048Z,89.04
2022-09-14T04:28:52.961Z,89.18
2022-09-14T04:31:19.730Z,89.29
2022-09-14T04:33:46.495Z,89.37
2022-09-14T04:36:14.791Z,89.16
2022-09-14T04:38:42.411Z,88.78
2022-09-14T04:41:11.943Z,88.51
2022-09-14T04:43:38.608Z,88.41
2022-09-14T04:46:16.290Z,88.53
2022-09-14T04:48:42.784Z,88.50
2022-09-14T04:51:17.326Z,88.59
2022-09-14T04:53:45.525Z,88.23
2022-09-14T04:56:13.211Z,88.99
2022-09-14T04:58:43.283Z,88.55
2022-09-14T05:01:15.496Z,88.84
2022-09-14T05:03:42.632Z,88.46
2022-09-14T05:06:15.265Z,88.51
2022-09-14T05:08:42.035Z,88.46
2022-09-14T05:11:11.885Z,88.24
2022-09-14T05:13:43.412Z,87.88
2022-09-14T05:16:20.957Z,88.25
2022-09-14T05:18:48.019Z,88.07
2022-09-14T05:21:19.827Z,88.37
2022-09-14T05:23:47.093Z,88.22
2022-09-14T05:26:15.093Z,88.59
2022-09-14T05:28:41.565Z,88.50
2022-09-14T05:31:10.250Z,88.64
2022-09-14T05:33:37.520Z,88.75
2022-09-14T05:36:28.665Z,89.16
2022-09-14T05:38:57.546Z,89.43
2022-09-14T05:41:23.966Z,89.42
2022-09-14T05:43:50.933Z,89.01
2022-09-14T05:46:22.091Z,88.88
2022-09-14T05:48:51.546Z,88.80
2022-09-14T05:51:24.064Z,88.15
2022-09-14T05:53:56.719Z,87.57
2022-09-14T05:56:25.391Z,87.50
2022-09-14T05:58:58.092Z,87.10
2022-09-14T06:01:27.268Z,86.78
2022-09-14T06:03:56.446Z,86.70
2022-09-14T06:06:23.830Z,86.41
2022-09-14T06:08:55.310Z,86.02
2022-09-14T06:11:24.518Z,86.24
2022-09-14T06:13:52.368Z,85.17
2022-09-14T06:16:20.527Z,86.22
2022-09-14T06:18:49.302Z,86.59
2022-09-14T06:21:19.223Z,86.66
2022-09-14T06:23:47.085Z,87.39
2022-09-14T06:26:13.666Z,87.71
2022-09-14T06:28:40.221Z,87.49
2022-09-14T06:31:07.719Z,87.20
2022-09-14T06:33:37.699Z,86.08
2022-09-14T06:36:12.429Z,86.15
2022-09-14T06:38:41.121Z,85.82
2022-09-14T06:41:10.138Z,85.66
2022-09-14T06:43:39.202Z,85.55
2022-09-14T06:46:19.159Z,86.01
2022-09-14T06:49:00.718Z,85.99
2022-09-14T06:51:30.362Z,86.00
2022-09-14T06:54:00.159Z,85.70
2022-09-14T06:56:35.984Z,85.99
2022-09-14T06:59:04.194Z,85.35
2022-09-14T07:01:30.613Z,85.54
2022-09-14T07:03:58.080Z,85.39
2022-09-14T07:06:33.845Z,84.52
2022-09-14T07:09:04.063Z,84.17
2022-09-14T07:11:30.726Z,83.86
2022-09-14T07:13:58.896Z,84.04
2022-09-14T07:16:29.571Z,83.72
2022-09-14T07:18:57.874Z,83.13
2022-09-14T07:21:25.732Z,83.15
2022-09-14T07:23:52.360Z,81.92
2022-09-14T07:26:21.379Z,82.13
2022-09-14T07:28:50.559Z,81.58
2022-09-14T07:31:18.997Z,81.54
2022-09-14T07:33:45.976Z,80.52
2022-09-14T07:36:13.602Z,79.77
2022-09-14T07:38:55.845Z,79.15
2022-09-14T07:41:24.810Z,78.85
2022-09-14T07:43:53.224Z,79.36
2022-09-14T07:46:21.258Z,79.27
2022-09-14T07:48:49.182Z,78.71
2022-09-14T07:51:15.780Z,77.71
2022-09-14T07:53:43.269Z,77.60
2022-09-14T07:56:11.539Z,78.34
2022-09-14T07:58:38.402Z,77.91
2022-09-14T08:01:12.004Z,77.47
2022-09-14T08:03:43.393Z,77.70
2022-09-14T08:06:11.065Z,77.92
2022-09-14T08:08:40.146Z,77.27
2022-09-14T08:11:11.777Z,77.49
2022-09-14T08:13:44.257Z,76.29
2022-09-14T08:16:11.878Z,76.77
2022-09-14T08:18:38.962Z,76.53
2022-09-14T08:21:06.600Z,75.95
2022-09-14T08:23:34.433Z,75.65
2022-09-14T08:26:05.940Z,74.34
2022-09-14T08:28:32.523Z,74.22
2022-09-14T08:31:04.162Z,73.83
2022-09-14T08:33:32.042Z,73.96
2022-09-14T08:35:58.584Z,73.32
2022-09-14T08:38:25.419Z,72.41
2022-09-14T08:40:52.373Z,72.09
2022-09-14T08:43:21.392Z,71.16
2022-09-14T08:45:50.031Z,71.14
2022-09-14T08:48:29.566Z,71.34
2022-09-14T08:50:56.193Z,71.00
2022-09-14T08:53:24.511Z,70.65
2022-09-14T08:56:02.836Z,71.25
2022-09-14T08:59:00.686Z,70.70
2022-09-14T09:01:52.427Z,70.18
2022-09-14T09:04:23.855Z,70.42
2022-09-14T09:07:03.838Z,71.22
2022-09-14T09:09:42.371Z,71.53
2022-09-14T09:12:14.051Z,71.18
2022-09-14T09:14:46.009Z,70.17
2022-09-14T09:17:38.669Z,70.05
2022-09-14T09:20:29.718Z,69.04
2022-09-14T09:23:06.843Z,68.63
2022-09-14T09:26:05.202Z,68.45
2022-09-14T09:28:34.139Z,68.29
2022-09-14T09:31:05.186Z,67.86
2022-09-14T09:33:52.325Z,67.35
2022-09-14T09:36:22.478Z,66.44
2022-09-14T09:38:49.017Z,66.29
2022-09-14T09:41:26.513Z,66.04
2022-09-14T09:44:10.390Z,65.75
2022-09-14T09:46:57.974Z,64.65
2022-09-14T09:49:39.407Z,63.88
2022-09-14T09:52:15.097Z,63.91
2022-09-14T09:54:49.291Z,63.75
2022-09-14T09:57:42.313Z,63.97
2022-09-14T10:00:25.505Z,64.25
2022-09-14T10:02:54.122Z,64.35
2022-09-14T10:05:29.020Z,63.34
2022-09-14T10:07:59.389Z,63.37
2022-09-14T10:10:35.214Z,63.60
2022-09-14T10:13:04.359Z,63.55
2022-09-14T10:15:34.267Z,61.76
2022-09-14T10:18:13.196Z,62.00
2022-09-14T10:20:53.257Z,62.20
2022-09-14T10:23:19.720Z,61.76
2022-09-14T10:25:51.265Z,60.57
2022-09-14T10:28:28.014Z,60.95
2022-09-14T10:31:18.579Z,60.96
2022-09-14T10:33:54.177Z,61.06
2022-09-14T10:36:31.987Z,61.20
2022-09-14T10:39:08.116Z,60.67
2022-09-14T10:41:53.472Z,60.82
2022-09-14T10:44:43.868Z,60.83
2022-09-14T10:47:32.683Z,60.88
2022-09-14T10:50:28.380Z,61.17
2022-09-14T10:53:16.940Z,60.53
2022-09-14T10:55:47.696Z,60.43
2022-09-14T10:58:55.546Z,58.75
2022-09-14T11:01:54.521Z,57.68
2022-09-14T11:04:39.294Z,58.67
2022-09-14T11:07:12.422Z,58.74
2022-09-14T11:09:47.225Z,58.73
2022-09-14T11:12:24.283Z,59.76
2022-09-14T11:15:06.606Z,59.27
2022-09-14T11:17:55.027Z,59.19
2022-09-14T11:20:41.960Z,58.86
2022-09-14T11:23:22.662Z,58.95
2022-09-14T11:25:57.922Z,57.09
2022-09-14T11:28:29.007Z,57.13
2022-09-14T11:31:15.345Z,56.66
2022-09-14T11:34:01.101Z,57.78
2022-09-14T11:36:36.878Z,56.78
2022-09-14T11:39:12.396Z,56.49
2022-09-14T11:44:44.583Z,56.11
2022-09-14T11:47:19.172Z,56.05
2022-09-14T11:50:30.631Z,56.55
2022-09-14T11:53:05.074Z,56.56
2022-09-14T11:55:32.091Z,56.55
2022-09-14T11:58:06.790Z,56.04
2022-09-14T12:00:48.663Z,56.65
2022-09-14T12:03:22.005Z,57.02
2022-09-14T12:05:51.080Z,58.19
2022-09-14T12:08:28.399Z,57.35
2022-09-14T12:11:07.047Z,57.74
2022-09-14T12:13:36.167Z,57.62
2022-09-14T12:16:09.092Z,56.97
2022-09-14T12:18:37.121Z,57.59
2022-09-14T12:21:08.111Z,57.02
2022-09-14T12:23:37.943Z,56.74
2022-09-14T12:26:05.250Z,57.34
2022-09-14T12:28:35.255Z,57.35
2022-09-14T12:31:03.353Z,57.52
2022-09-14T12:33:35.647Z,58.02
2022-09-14T12:36:07.330Z,58.27
2022-09-14T12:39:03.454Z,58.90
2022-09-14T12:41:36.557Z,58.79
2022-09-14T12:44:05.487Z,58.82
2022-09-14T12:46:38.514Z,58.83
2022-09-14T12:49:26.945Z,58.85
2022-09-14T12:51:54.904Z,58.42
2022-09-14T12:54:35.562Z,58.83
2022-09-14T12:57:19.252Z,57.69
2022-09-14T12:59:54.745Z,57.71
2022-09-14T13:02:49.472Z,58.03
2022-09-14T13:05:20.450Z,58.22
2022-09-14T13:07:47.265Z,57.40
2022-09-14T13:10:31.865Z,57.87
2022-09-14T13:13:01.120Z,58.98
2022-09-14T13:15:37.078Z,59.72
2022-09-14T13:18:12.592Z,60.01
2022-09-14T13:20:40.686Z,60.19
2022-09-14T13:23:42.658Z,60.74
2022-09-14T13:26:20.803Z,60.81
2022-09-14T13:28:51.322Z,60.81
2022-09-14T13:31:25.438Z,60.89
2022-09-14T13:33:54.448Z,60.59
2022-09-14T13:36:36.478Z,61.04
2022-09-14T13:39:05.349Z,60.70
2022-09-14T13:41:33.406Z,60.75
2022-09-14T13:44:00.239Z,61.14
2022-09-14T13:46:27.624Z,61.72
2022-09-14T13:48:55.413Z,61.14
2022-09-14T13:51:24.934Z,60.90
2022-09-14T13:53:54.649Z,59.47
2022-09-14T13:56:31.211Z,59.77
2022-09-14T13:59:07.112Z,59.04
2022-09-14T14:01:38.409Z,58.84
2022-09-14T14:04:19.185Z,58.94
2022-09-14T14:06:46.046Z,59.27
2022-09-14T14:09:12.958Z,59.03
2022-09-14T14:11:45.369Z,59.23
2022-09-14T14:14:30.263Z,59.16
2022-09-14T14:17:13.096Z,58.85
2022-09-14T14:19:43.606Z,58.92
2022-09-14T14:22:18.452Z,58.60
2022-09-14T14:25:09.499Z,58.79
2022-09-14T14:27:38.249Z,59.36
2022-09-14T14:30:17.382Z,60.55
2022-09-14T14:32:44.117Z,60.49
2022-09-14T14:35:20.056Z,60.95
2022-09-14T14:37:47.766Z,61.33
2022-09-14T14:40:16.152Z,60.57
2022-09-14T14:42:43.218Z,60.28
2022-09-14T14:45:14.901Z,60.96
2022-09-14T14:47:41.403Z,61.11
2022-09-14T14:50:17.667Z,60.86
2022-09-14T14:52:44.229Z,60.77
2022-09-14T14:55:10.904Z,61.16
2022-09-14T14:57:38.877Z,61.42
2022-09-14T15:00:13.481Z,61.09
2022-09-14T15:02:40.031Z,61.20
2022-09-14T15:05:07.205Z,60.84
2022-09-14T15:07:37.625Z,60.76
2022-09-14T15:10:06.541Z,60.79
2022-09-14T15:12:34.593Z,60.88
2022-09-14T15:15:03.768Z,60.81
2022-09-14T15:17:30.687Z,61.32
2022-09-14T15:19:57.057Z,61.36
2022-09-14T15:22:23.518Z,61.62
2022-09-14T15:24:51.264Z,61.33
2022-09-14T15:27:17.698Z,61.49
2022-09-14T15:29:44.081Z,61.66
2022-09-14T15:32:11.053Z,61.13
2022-09-14T15:34:37.657Z,61.50
2022-09-14T15:37:05.300Z,61.37
2022-09-14T15:39:31.762Z,61.52
2022-09-14T15:41:58.990Z,61.87
2022-09-14T15:44:25.611Z,61.38
2022-09-14T15:46:56.390Z,61.74
2022-09-14T15:49:24.898Z,61.35
2022-09-14T15:51:53.756Z,62.17
2022-09-14T15:54:24.948Z,61.85
2022-09-14T15:56:53.976Z,61.97
2022-09-14T15:59:21.466Z,61.68
2022-09-14T16:01:48.680Z,61.01
2022-09-14T16:04:16.624Z,61.05
2022-09-14T16:06:43.484Z,61.11
2022-09-14T16:09:11.698Z,61.13
2022-09-14T16:11:41.595Z,60.70
2022-09-14T16:14:10.740Z,60.72
2022-09-14T16:16:38.274Z,60.75
2022-09-14T16:19:10.829Z,60.83
2022-09-14T16:21:38.183Z,61.21
2022-09-14T16:24:08.775Z,61.57
2022-09-14T16:26:38.147Z,61.55
2022-09-14T16:29:06.873Z,61.91
2022-09-14T16:31:37.546Z,62.31
2022-09-14T16:34:33.628Z,62.02
2022-09-14T16:37:00.194Z,62.93
2022-09-14T16:39:30.540Z,63.25
2022-09-14T16:41:58.515Z,63.77
2022-09-14T16:44:26.451Z,64.67
2022-09-14T16:46:54.728Z,64.92
2022-09-14T16:49:24.961Z,65.28
2022-09-14T16:51:52.904Z,65.52
2022-09-14T16:54:21.686Z,65.65
2022-09-14T16:56:48.657Z,65.42
2022-09-14T16:59:17.658Z,66.01
2022-09-14T17:01:46.553Z,65.87
2022-09-14T17:04:16.378Z,66.51
2022-09-14T17:06:44.924Z,66.79
2022-09-14T17:09:17.179Z,66.89
2022-09-14T17:11:44.254Z,67.22
2022-09-14T17:14:15.127Z,67.17
2022-09-14T17:16:42.313Z,67.18
2022-09-14T17:19:10.120Z,67.63
2022-09-14T17:21:39.103Z,68.29
2022-09-14T17:24:07.395Z,68.83
2022-09-14T17:26:34.671Z,69.02
2022-09-14T17:29:03.596Z,69.26
2022-09-14T17:31:33.870Z,69.44
2022-09-14T17:34:02.146Z,70.28
2022-09-14T17:36:28.797Z,70.72
2022-09-14T17:38:58.554Z,71.70
2022-09-14T17:41:27.995Z,71.77
2022-09-14T17:43:59.621Z,72.18
2022-09-14T17:46:27.023Z,72.60
2022-09-14T17:48:56.107Z,72.50
2022-09-14T17:51:24.278Z,72.80
2022-09-14T17:53:53.721Z,72.91
2022-09-14T17:56:23.251Z,73.63
2022-09-14T17:58:57.239Z,73.56
2022-09-14T18:01:23.713Z,74.03
2022-09-14T18:03:53.781Z,75.06
2022-09-14T18:06:22.932Z,75.17
2022-09-14T18:08:54.102Z,76.12
2022-09-14T18:11:21.387Z,75.94
2022-09-14T18:13:49.874Z,76.54
2022-09-14T18:16:19.741Z,76.72
2022-09-14T18:18:46.890Z,77.35
2022-09-14T18:21:14.873Z,77.43
2022-09-14T18:23:41.281Z,77.43
2022-09-14T18:26:08.174Z,77.90
2022-09-14T18:28:36.467Z,78.34
2022-09-14T18:31:06.042Z,78.40
2022-09-14T18:33:32.827Z,78.64
2022-09-14T18:35:59.675Z,78.45
2022-09-14T18:38:26.509Z,79.36
2022-09-14T18:40:52.872Z,79.51
2022-09-14T18:43:19.343Z,79.37
2022-09-14T18:45:46.833Z,79.55
2022-09-14T18:48:13.721Z,79.42
2022-09-14T18:50:41.618Z,79.33
2022-09-14T18:53:08.526Z,79.18
2022-09-14T18:55:40.985Z,79.65
2022-09-14T18:58:07.492Z,79.33
2022-09-14T19:00:34.634Z,79.17
2022-09-14T19:03:01.268Z,79.60
2022-09-14T19:05:29.873Z,79.49
2022-09-14T19:07:56.288Z,79.88
2022-09-14T19:10:23.092Z,79.65
2022-09-14T19:12:49.819Z,79.69
2022-09-14T19:15:17.802Z,79.69
2022-09-14T19:17:44.201Z,80.09
2022-09-14T19:20:11.552Z,79.64
2022-09-14T19:22:37.942Z,79.92
2022-09-14T19:25:05.781Z,80.17
2022-09-14T19:27:32.198Z,79.58
2022-09-14T19:30:01.023Z,79.37
2022-09-14T19:32:27.427Z,79.70
2022-09-14T19:34:54.338Z,79.65
2022-09-14T19:37:20.930Z,79.68
2022-09-14T19:39:47.555Z,79.84
2022-09-14T19:42:14.069Z,80.53
2022-09-14T19:44:40.646Z,80.44
2022-09-14T19:47:07.626Z,81.04
2022-09-14T19:49:34.900Z,81.14
2022-09-14T19:52:03.919Z,81.19
2022-09-14T19:54:30.353Z,81.47
2022-09-14T19:56:56.881Z,81.32
2022-09-14T19:59:23.290Z,81.69
2022-09-14T20:01:51.218Z,81.46
2022-09-14T20:04:22.354Z,82.25
2022-09-14T20:06:48.858Z,82.38
2022-09-14T20:09:21.529Z,82.55
2022-09-14T20:11:51.170Z,82.88
2022-09-14T20:14:21.734Z,83.48
2022-09-14T20:16:51.213Z,83.79
2022-09-14T20:19:20.936Z,84.04
2022-09-14T20:21:49.897Z,84.18
2022-09-14T20:24:19.784Z,83.62
2022-09-14T20:26:47.576Z,83.88
2022-09-14T20:29:15.230Z,83.29
2022-09-14T20:31:41.967Z,83.50
2022-09-14T20:34:09.014Z,83.24
2022-09-14T20:36:35.917Z,83.40
2022-09-14T20:39:02.383Z,83.79
2022-09-14T20:41:31.379Z,83.34
2022-09-14T20:43:58.025Z,83.08
2022-09-14T20:46:35.114Z,83.30
2022-09-14T20:49:07.786Z,83.82
2022-09-14T20:51:35.985Z,83.88
2022-09-14T20:54:05.804Z,84.10
2022-09-14T20:56:34.972Z,84.30
2022-09-14T20:59:07.596Z,83.93
2022-09-14T21:01:36.079Z,84.18
2022-09-14T21:04:09.157Z,83.70
2022-09-14T21:06:42.718Z,83.60
2022-09-14T21:09:10.392Z,84.16
2022-09-14T21:11:37.737Z,83.84
2022-09-14T21:14:05.721Z,83.73
2022-09-14T21:16:36.955Z,84.39
2022-09-14T21:19:21.381Z,84.67
2022-09-14T21:21:49.907Z,84.91
2022-09-14T21:24:18.558Z,85.21
2022-09-14T21:26:45.369Z,85.14
2022-09-14T21:29:15.105Z,85.86
2022-09-14T21:31:41.711Z,85.72
2022-09-14T21:34:10.213Z,86.40
2022-09-14T21:36:42.731Z,86.78
2022-09-14T21:39:12.550Z,86.95
2022-09-14T21:41:40.602Z,86.81
2022-09-14T21:44:08.242Z,86.13
2022-09-14T21:46:35.200Z,86.46
2022-09-14T21:49:05.030Z,87.08
2022-09-14T21:51:34.934Z,86.82
2022-09-14T21:54:07.793Z,87.50
2022-09-14T21:56:37.221Z,88.24
2022-09-14T21:59:07.603Z,88.84
2022-09-14T22:01:35.132Z,88.95
2022-09-14T22:04:03.975Z,88.41
2022-09-14T22:06:35.187Z,89.33
2022-09-14T22:09:02.494Z,89.29
2022-09-14T22:11:32.627Z,88.80
2022-09-14T22:14:13.325Z,89.07
2022-09-14T22:16:41.147Z,89.39
2022-09-14T22:19:16.608Z,89.38
2022-09-14T22:21:43.664Z,89.78
2022-09-14T22:24:36.358Z,89.78
2022-09-14T22:27:04.217Z,89.77
2022-09-14T22:29:30.689Z,89.77
2022-09-14T22:31:57.147Z,90.43
2022-09-14T22:34:24.419Z,90.70
2022-09-14T22:36:51.667Z,90.93
2022-09-14T22:39:18.263Z,91.40
2022-09-14T22:41:46.725Z,92.37
2022-09-14T22:44:13.359Z,93.25
2022-09-14T22:46:40.226Z,93.36
2022-09-14T22:49:07.093Z,93.54
2022-09-14T22:51:35.249Z,94.04
2022-09-14T22:54:02.159Z,94.36
2022-09-14T22:56:32.221Z,95.54
2022-09-14T22:59:01.026Z,95.35
2022-09-14T23:01:35.328Z,95.46
2022-09-14T23:04:06.153Z,95.58
2022-09-14T23:06:36.165Z,96.58
2022-09-14T23:09:06.102Z,96.46
2022-09-14T23:11:32.727Z,96.48
2022-09-14T23:13:59.418Z,96.71
2022-09-14T23:16:28.225Z,96.88
2022-09-14T23:19:00.189Z,96.94
2022-09-14T23:21:28.440Z,97.21
2022-09-14T23:23:58.115Z,97.59
2022-09-14T23:26:25.666Z,97.45
2022-09-14T23:28:54.549Z,97.11
2022-09-14T23:31:21.493Z,97.37
2022-09-14T23:33:53.966Z,97.37
2022-09-14T23:36:22.123Z,97.45
2022-09-14T23:38:49.664Z,97.48
2022-09-14T23:41:18.077Z,97.48
2022-09-14T23:43:44.597Z,97.59
2022-09-14T23:46:12.541Z,97.72
2022-09-14T23:48:39.616Z,98.00
2022-09-14T23:51:07.909Z,97.54
2022-09-14T23:53:36.119Z,97.54
2022-09-14T23:56:05.340Z,97.57
2022-09-14T23:58:31.927Z,98.04
